Time;durP1;ratioP1;P1;durP2;ratioP2;P2;SDS_P1;SDS_P2;PMS_P1;PMS_P2;Temp;Humidity;BMP_temperature;BMP_pressure;BME280_temperature;BME280_humidity;BME280_pressure;Samples;Min_cycle;Max_cycle;Signal;HPM_P1;HPM_P2
2023/01/10 00:00:34;;;;;;;14.70;2.83;;;7.00;99.90;;;;;;5056953;28;20171;-79
2023/01/10 00:03:04;;;;;;;16.95;2.83;;;7.00;99.90;;;;;;5056413;28;20167;-81
2023/01/10 00:05:30;;;;;;;12.50;2.85;;;7.10;99.90;;;;;;5056163;28;20712;-80
2023/01/10 00:07:57;;;;;;;12.68;2.13;;;7.10;99.90;;;;;;5055359;28;20167;-79
2023/01/10 00:10:23;;;;;;;15.43;3.05;;;7.00;99.90;;;;;;5054509;28;20205;-79
2023/01/10 00:15:35;;;;;;;15.80;3.25;;;7.10;99.90;;;;;;5054432;28;20193;-79
2023/01/10 00:18:02;;;;;;;8.20;1.52;;;7.10;99.90;;;;;;5058533;28;20198;-79
2023/01/10 00:20:29;;;;;;;12.50;2.65;;;7.00;99.90;;;;;;5054831;28;20206;-79
2023/01/10 00:22:55;;;;;;;14.00;2.17;;;7.10;99.90;;;;;;5053264;28;20190;-79
2023/01/10 00:25:21;;;;;;;16.08;2.30;;;7.20;99.90;;;;;;5054030;28;20195;-80
2023/01/10 00:28:18;;;;;;;9.18;3.10;;;7.30;99.90;;;;;;5054555;28;20250;-80
2023/01/10 00:30:48;;;;;;;11.10;2.47;;;7.30;99.90;;;;;;5054724;28;20207;-80
2023/01/10 00:33:19;;;;;;;9.73;2.40;;;7.30;99.90;;;;;;5052436;28;20175;-80
2023/01/10 00:35:46;;;;;;;13.18;2.47;;;7.40;99.90;;;;;;5052356;28;20182;-80
2023/01/10 00:38:12;;;;;;;13.52;2.80;;;7.40;99.90;;;;;;5052282;28;20155;-80
2023/01/10 00:40:39;;;;;;;20.13;3.25;;;7.40;99.90;;;;;;5050869;28;20175;-79
2023/01/10 00:45:49;;;;;;;16.00;2.40;;;7.50;99.90;;;;;;5052096;28;20178;-80
2023/01/10 00:48:15;;;;;;;9.85;2.63;;;7.50;99.90;;;;;;5051012;28;20173;-79
2023/01/10 00:50:41;;;;;;;14.70;2.85;;;7.60;99.90;;;;;;5051184;28;20272;-82
2023/01/10 00:53:07;;;;;;;11.90;2.50;;;7.60;99.90;;;;;;5052295;28;20567;-80
2023/01/10 00:55:34;;;;;;;10.65;2.47;;;7.60;99.90;;;;;;5050599;28;20624;-80
2023/01/10 00:57:59;;;;;;;12.65;3.13;;;7.60;99.90;;;;;;5050769;28;20167;-79
2023/01/10 01:00:25;;;;;;;10.35;2.17;;;7.60;99.90;;;;;;5051965;28;20176;-85
2023/01/10 01:02:51;;;;;;;15.65;2.95;;;7.60;99.90;;;;;;5051955;28;20615;-80
2023/01/10 01:05:17;;;;;;;20.63;2.17;;;7.70;99.90;;;;;;5052325;28;20198;-79
2023/01/10 01:07:43;;;;;;;28.48;3.25;;;7.70;99.90;;;;;;5050932;28;20174;-81
2023/01/10 01:10:27;;;;;;;6.13;2.03;;;7.60;99.90;;;;;;5051836;28;20566;-80
2023/01/10 01:12:58;;;;;;;13.25;2.10;;;7.60;99.90;;;;;;5050538;28;20186;-81
2023/01/10 01:15:25;;;;;;;10.32;2.85;;;7.50;99.90;;;;;;5050416;28;20659;-80
2023/01/10 01:17:51;;;;;;;17.67;2.10;;;7.60;99.90;;;;;;5052080;28;20213;-79
2023/01/10 01:20:17;;;;;;;24.98;3.67;;;7.50;99.90;;;;;;5054227;28;20219;-80
2023/01/10 01:22:42;;;;;;;20.02;2.42;;;7.40;99.90;;;;;;5055615;28;20170;-80
2023/01/10 01:25:08;;;;;;;32.47;2.75;;;7.40;99.90;;;;;;5055357;28;20191;-79
2023/01/10 01:27:34;;;;;;;19.45;2.58;;;7.40;99.90;;;;;;5056314;28;20189;-80
2023/01/10 01:30:00;;;;;;;12.75;3.13;;;7.40;99.90;;;;;;5055899;28;20202;-79
2023/01/10 01:32:27;;;;;;;13.43;2.80;;;7.40;99.90;;;;;;5062521;28;20162;-80
2023/01/10 01:34:52;;;;;;;14.95;2.60;;;7.40;99.90;;;;;;5065878;28;20245;-80
2023/01/10 01:37:18;;;;;;;6.20;1.75;;;7.40;99.90;;;;;;5056934;28;20163;-79
2023/01/10 01:39:48;;;;;;;11.85;2.28;;;7.40;99.90;;;;;;5056258;28;20571;-80
2023/01/10 01:42:20;;;;;;;15.13;2.05;;;7.30;99.90;;;;;;5056765;28;20185;-79
2023/01/10 01:45:08;;;;;;;8.10;2.40;;;7.20;99.90;;;;;;5056082;28;20179;-79
2023/01/10 01:47:52;;;;;;;17.48;2.65;;;7.20;99.90;;;;;;5054365;28;20680;-80
2023/01/10 01:50:29;;;;;;;14.00;2.15;;;7.30;99.90;;;;;;5058318;28;20213;-80
2023/01/10 01:52:57;;;;;;;14.57;2.97;;;7.40;99.90;;;;;;5056121;28;20158;-80
2023/01/10 01:55:26;;;;;;;23.60;2.45;;;7.50;99.90;;;;;;5054667;28;20195;-79
2023/01/10 01:57:54;;;;;;;13.07;2.15;;;7.40;99.90;;;;;;5054823;28;20195;-80
2023/01/10 02:00:20;;;;;;;27.80;2.78;;;7.30;99.90;;;;;;5054587;28;20161;-80
2023/01/10 02:02:52;;;;;;;15.18;2.47;;;7.30;99.90;;;;;;5054884;28;20182;-81
2023/01/10 02:05:21;;;;;;;25.25;3.33;;;7.20;99.90;;;;;;5054399;28;20179;-79
2023/01/10 02:07:54;;;;;;;8.93;1.92;;;7.40;99.90;;;;;;5053275;28;20171;-80
2023/01/10 02:11:07;;;;;;;11.52;2.60;;;7.40;99.90;;;;;;5045495;28;20302;-80
2023/01/10 02:13:36;;;;;;;23.33;3.53;;;7.40;99.90;;;;;;4976707;28;20364;-80
2023/01/10 02:16:01;;;;;;;11.90;1.58;;;7.40;99.90;;;;;;5027115;28;20547;-80
2023/01/10 02:18:27;;;;;;;16.42;2.35;;;7.40;99.90;;;;;;5034376;28;20164;-80
2023/01/10 02:21:16;;;;;;;12.50;2.75;;;7.30;99.90;;;;;;5034645;28;20168;-80
2023/01/10 02:24:00;;;;;;;17.30;2.90;;;7.30;99.90;;;;;;5034413;28;20215;-81
2023/01/10 02:26:47;;;;;;;21.95;3.40;;;7.30;99.90;;;;;;5034335;28;20584;-80
2023/01/10 02:29:28;;;;;;;11.52;2.40;;;7.20;99.90;;;;;;5033271;28;20543;-80
2023/01/10 02:32:18;;;;;;;9.75;2.67;;;6.90;99.90;;;;;;5034412;28;20175;-86
2023/01/10 02:35:22;;;;;;;15.65;3.03;;;7.10;99.90;;;;;;5033050;28;21173;-80
2023/01/10 02:38:05;;;;;;;12.70;2.85;;;7.10;99.90;;;;;;5011453;28;20537;-80
2023/01/10 02:40:49;;;;;;;5.32;2.05;;;7.00;99.90;;;;;;5034025;28;20168;-80
2023/01/10 02:43:22;;;;;;;15.27;2.55;;;6.90;99.90;;;;;;5034316;28;20179;-80
2023/01/10 02:46:06;;;;;;;18.13;3.50;;;6.80;99.90;;;;;;5033967;28;20164;-80
2023/01/10 02:48:31;;;;;;;21.48;2.85;;;6.70;99.90;;;;;;5034195;28;20225;-86
2023/01/10 02:51:13;;;;;;;10.65;2.67;;;6.80;99.90;;;;;;5032905;28;20603;-86
2023/01/10 02:53:55;;;;;;;13.75;2.75;;;6.70;99.90;;;;;;5032742;28;20619;-83
2023/01/10 02:56:33;;;;;;;23.33;2.75;;;6.70;99.90;;;;;;5033479;28;20168;-81
2023/01/10 02:59:23;;;;;;;17.63;2.30;;;6.80;99.90;;;;;;5032430;28;20628;-80
2023/01/10 03:01:51;;;;;;;17.98;2.45;;;6.70;99.90;;;;;;5033961;28;20227;-80
2023/01/10 03:04:26;;;;;;;14.40;3.25;;;6.80;99.90;;;;;;5032598;28;20191;-80
2023/01/10 03:07:15;;;;;;;36.80;3.15;;;6.70;99.90;;;;;;5032432;28;20212;-80
2023/01/10 03:09:53;;;;;;;7.35;2.47;;;6.70;99.90;;;;;;5033934;28;20206;-79
2023/01/10 03:12:22;;;;;;;15.55;3.10;;;6.80;99.90;;;;;;5033635;28;20178;-80
2023/01/10 03:14:49;;;;;;;21.00;2.63;;;6.60;99.90;;;;;;5032011;28;20191;-81
2023/01/10 03:17:15;;;;;;;11.95;2.17;;;6.60;99.90;;;;;;5033892;28;20682;-79
2023/01/10 03:19:53;;;;;;;24.25;3.28;;;6.70;99.90;;;;;;5032248;28;20536;-79
2023/01/10 03:22:19;;;;;;;14.23;3.35;;;6.80;99.90;;;;;;5033590;28;20171;-85
2023/01/10 03:24:48;;;;;;;23.05;3.65;;;6.80;99.90;;;;;;5033549;28;20199;-80
2023/01/10 03:27:20;;;;;;;8.43;2.58;;;6.90;99.90;;;;;;5034243;28;20167;-79
2023/01/10 03:30:05;;;;;;;16.50;3.05;;;7.00;99.90;;;;;;5032635;28;20206;-88
2023/01/10 03:32:31;;;;;;;11.40;2.53;;;7.00;99.90;;;;;;5033276;28;20671;-81
2023/01/10 03:34:59;;;;;;;24.13;3.00;;;7.00;99.90;;;;;;5033693;28;20567;-86
2023/01/10 03:37:36;;;;;;;6.82;2.35;;;7.00;99.90;;;;;;5033339;28;20171;-86
2023/01/10 03:40:21;;;;;;;17.52;2.95;;;6.90;99.90;;;;;;5032609;28;20178;-81
2023/01/10 03:46:07;;;;;;;14.52;2.65;;;6.90;99.90;;;;;;5033458;28;20659;-86
2023/01/10 03:48:36;;;;;;;28.48;4.15;;;6.80;99.90;;;;;;5031946;28;20172;-86
2023/01/10 03:51:04;;;;;;;13.18;1.95;;;6.70;99.90;;;;;;5031505;28;20747;-86
2023/01/10 03:53:31;;;;;;;20.83;3.33;;;6.60;99.90;;;;;;5032911;28;20195;-82
2023/01/10 03:55:58;;;;;;;39.55;3.92;;;6.60;99.90;;;;;;5033120;28;20163;-85
2023/01/10 03:58:24;;;;;;;19.60;4.10;;;6.60;99.90;;;;;;5032767;28;20698;-81
2023/01/10 04:00:49;;;;;;;22.45;4.18;;;6.30;99.90;;;;;;5033032;28;20168;-80
2023/01/10 04:03:15;;;;;;;15.80;3.13;;;6.30;99.90;;;;;;5031837;28;20176;-83
2023/01/10 04:05:41;;;;;;;33.17;3.33;;;6.20;99.90;;;;;;5033233;28;20167;-80
2023/01/10 04:08:07;;;;;;;15.27;3.03;;;6.20;99.90;;;;;;5032351;28;20201;-87
2023/01/10 04:10:32;;;;;;;27.70;3.45;;;6.20;99.90;;;;;;5032814;28;20207;-80
2023/01/10 04:13:00;;;;;;;23.33;3.38;;;6.30;99.90;;;;;;5031566;28;20172;-80
2023/01/10 04:15:26;;;;;;;21.27;3.03;;;6.30;99.90;;;;;;5032959;28;20192;-81
2023/01/10 04:17:51;;;;;;;15.35;3.60;;;6.30;99.90;;;;;;5034808;28;20298;-81
2023/01/10 04:20:17;;;;;;;21.80;2.72;;;6.40;99.90;;;;;;5033246;28;20171;-85
2023/01/10 04:22:45;;;;;;;11.93;3.42;;;6.40;99.90;;;;;;5033689;28;20172;-87
2023/01/10 04:25:11;;;;;;;24.75;3.38;;;6.40;99.90;;;;;;5032999;28;20283;-86
2023/01/10 04:27:36;;;;;;;16.83;3.15;;;6.30;99.90;;;;;;5033929;28;20672;-87
2023/01/10 04:30:02;;;;;;;27.20;3.55;;;6.40;99.90;;;;;;5033291;28;20206;-88
2023/01/10 04:32:28;;;;;;;16.27;3.65;;;6.20;99.90;;;;;;5034304;28;20617;-88
2023/01/10 04:34:54;;;;;;;24.15;3.58;;;6.10;99.90;;;;;;5033777;28;20242;-83
2023/01/10 04:37:20;;;;;;;21.70;4.13;;;6.10;99.90;;;;;;5032524;28;20265;-87
2023/01/10 04:39:46;;;;;;;17.58;3.58;;;6.00;99.90;;;;;;5033842;28;20160;-88
2023/01/10 04:42:12;;;;;;;21.65;3.60;;;6.00;99.90;;;;;;5032495;28;20168;-88
2023/01/10 04:44:38;;;;;;;20.83;3.25;;;6.10;99.90;;;;;;5031840;28;20194;-85
2023/01/10 04:47:03;;;;;;;27.50;3.90;;;6.10;99.90;;;;;;5033219;28;20227;-83
2023/01/10 04:49:29;;;;;;;27.10;4.22;;;6.00;99.90;;;;;;5033098;28;20195;-85
2023/01/10 04:51:55;;;;;;;17.40;3.17;;;6.10;99.90;;;;;;5031810;28;20168;-84
2023/01/10 04:54:22;;;;;;;16.63;2.55;;;6.20;99.90;;;;;;5036524;28;20279;-82
2023/01/10 04:56:48;;;;;;;32.92;4.07;;;6.20;99.90;;;;;;5036913;28;20199;-87
2023/01/10 04:59:13;;;;;;;27.38;4.10;;;6.20;99.90;;;;;;5037503;28;20178;-83
2023/01/10 05:01:39;;;;;;;21.02;3.17;;;6.30;99.90;;;;;;5036757;28;20309;-81
2023/01/10 05:04:06;;;;;;;10.60;2.50;;;6.20;99.90;;;;;;5035589;28;20215;-86
2023/01/10 05:06:32;;;;;;;27.25;4.22;;;6.10;99.90;;;;;;5036916;28;20643;-86
2023/01/10 05:08:57;;;;;;;22.95;2.75;;;6.10;99.90;;;;;;5035896;28;20599;-79
2023/01/10 05:11:23;;;;;;;29.90;3.10;;;6.10;99.90;;;;;;5036079;28;20191;-85
2023/01/10 05:13:49;;;;;;;19.75;4.03;;;5.90;99.90;;;;;;5052423;28;20188;-80
2023/01/10 05:16:17;;;;;;;22.88;3.15;;;5.90;99.90;;;;;;5044930;28;20164;-87
2023/01/10 05:18:45;;;;;;;30.08;3.13;;;5.90;99.90;;;;;;5042976;28;20684;-81
2023/01/10 05:21:12;;;;;;;31.77;4.18;;;6.00;99.90;;;;;;5046969;28;20604;-86
2023/01/10 05:23:39;;;;;;;26.33;3.63;;;5.90;99.90;;;;;;5045499;28;20200;-84
2023/01/10 05:26:07;;;;;;;14.20;2.95;;;5.90;99.90;;;;;;5049067;28;20168;-82
2023/01/10 05:28:33;;;;;;;26.05;3.75;;;6.00;99.90;;;;;;5044063;28;20630;-85
2023/01/10 05:30:58;;;;;;;23.02;3.95;;;6.00;99.90;;;;;;5036539;28;20290;-87
2023/01/10 05:33:24;;;;;;;22.48;3.65;;;6.00;99.90;;;;;;5035171;28;20564;-87
2023/01/10 05:35:49;;;;;;;19.83;3.55;;;6.00;99.90;;;;;;5036210;28;20176;-80
2023/01/10 05:38:15;;;;;;;18.38;4.10;;;6.00;99.90;;;;;;5035210;28;20706;-79
2023/01/10 05:40:41;;;;;;;27.27;2.78;;;6.00;99.90;;;;;;5035706;28;20636;-84
2023/01/10 05:43:06;;;;;;;31.63;4.07;;;6.00;99.90;;;;;;5034578;28;20172;-79
2023/01/10 05:45:32;;;;;;;15.57;3.33;;;6.00;99.90;;;;;;5035754;28;20229;-80
2023/01/10 05:47:57;;;;;;;31.33;3.50;;;6.10;99.90;;;;;;5035512;28;20172;-80
2023/01/10 05:50:23;;;;;;;15.85;3.03;;;6.10;99.90;;;;;;5034515;28;20298;-85
2023/01/10 05:52:49;;;;;;;44.05;4.35;;;6.00;99.90;;;;;;5037845;28;20171;-87
2023/01/10 05:55:14;;;;;;;25.88;3.42;;;5.90;99.90;;;;;;5036267;28;20195;-85
2023/01/10 05:57:40;;;;;;;31.83;4.30;;;5.90;99.90;;;;;;5036254;28;20171;-86
2023/01/10 06:00:06;;;;;;;21.15;3.60;;;6.00;99.90;;;;;;5036095;28;20168;-87
2023/01/10 06:02:32;;;;;;;29.70;5.22;;;6.10;99.90;;;;;;5036252;28;20178;-81
2023/01/10 06:04:58;;;;;;;20.85;2.47;;;6.10;99.90;;;;;;5035778;28;20187;-82
2023/01/10 06:07:24;;;;;;;29.08;3.15;;;6.10;99.90;;;;;;5035082;28;20250;-87
2023/01/10 06:09:50;;;;;;;17.95;3.28;;;6.00;99.90;;;;;;5036987;28;20209;-87
2023/01/10 06:12:17;;;;;;;36.17;3.17;;;5.90;99.90;;;;;;5038399;28;20218;-85
2023/01/10 06:14:43;;;;;;;32.10;3.80;;;5.90;99.90;;;;;;5020246;28;20299;-87
2023/01/10 06:17:09;;;;;;;25.45;3.40;;;5.80;99.90;;;;;;5036998;28;20199;-88
2023/01/10 06:19:35;;;;;;;18.08;2.10;;;5.80;99.90;;;;;;5036560;28;20179;-86
2023/01/10 06:22:02;;;;;;;18.35;3.03;;;5.80;99.90;;;;;;5035027;28;20172;-84
2023/01/10 06:24:28;;;;;;;12.20;3.08;;;5.70;99.90;;;;;;5034456;28;20211;-84
2023/01/10 06:26:53;;;;;;;25.63;3.85;;;5.70;99.90;;;;;;5034220;28;20513;-83
2023/01/10 06:29:19;;;;;;;22.52;3.50;;;5.60;99.90;;;;;;5035205;28;20156;-85
2023/01/10 06:31:44;;;;;;;20.15;2.88;;;5.50;99.90;;;;;;5034995;28;20254;-82
2023/01/10 06:34:10;;;;;;;14.20;2.75;;;5.50;99.90;;;;;;5033893;28;20194;-80
2023/01/10 06:36:36;;;;;;;23.70;3.80;;;5.70;99.90;;;;;;5033678;28;20302;-85
2023/01/10 06:39:01;;;;;;;18.05;3.40;;;5.60;99.90;;;;;;5033768;28;20164;-83
2023/01/10 06:41:27;;;;;;;17.13;3.20;;;5.60;99.90;;;;;;5035489;28;20174;-85
2023/01/10 06:43:53;;;;;;;18.77;3.58;;;5.50;99.90;;;;;;5035058;28;20199;-83
2023/01/10 06:46:18;;;;;;;21.17;3.20;;;5.60;99.90;;;;;;5033416;28;20625;-83
2023/01/10 06:48:45;;;;;;;27.17;4.10;;;5.60;99.90;;;;;;5035257;28;20243;-81
2023/01/10 06:51:12;;;;;;;38.05;4.30;;;5.60;99.90;;;;;;5035698;28;20239;-84
2023/01/10 06:53:38;;;;;;;11.45;2.28;;;5.60;99.90;;;;;;5033796;28;20557;-80
2023/01/10 06:56:04;;;;;;;41.53;2.85;;;5.60;99.90;;;;;;5034042;28;20164;-80
2023/01/10 06:58:31;;;;;;;19.25;2.55;;;5.50;99.90;;;;;;5032607;28;20690;-80
2023/01/10 07:00:57;;;;;;;11.65;2.08;;;5.60;99.90;;;;;;5032759;28;20263;-80
2023/01/10 07:03:22;;;;;;;19.25;3.78;;;5.50;99.90;;;;;;5032833;28;20263;-79
2023/01/10 07:05:48;;;;;;;20.17;3.00;;;5.50;99.90;;;;;;5033842;28;20172;-80
2023/01/10 07:08:14;;;;;;;25.23;2.78;;;5.50;99.90;;;;;;5032641;28;20637;-81
2023/01/10 07:10:41;;;;;;;14.23;3.10;;;5.50;99.90;;;;;;5034186;28;20200;-83
2023/01/10 07:13:06;;;;;;;34.50;3.55;;;5.60;99.90;;;;;;5032940;28;20164;-81
2023/01/10 07:15:32;;;;;;;18.40;2.97;;;5.70;99.90;;;;;;5029238;28;20210;-81
2023/01/10 07:17:58;;;;;;;17.40;3.72;;;5.70;99.90;;;;;;5036767;28;20194;-81
2023/01/10 07:20:24;;;;;;;19.60;3.47;;;5.50;99.90;;;;;;5031861;28;20262;-79
2023/01/10 07:22:58;;;;;;;11.93;3.13;;;5.50;99.90;;;;;;5032030;28;20659;-79
2023/01/10 07:25:27;;;;;;;22.80;3.05;;;5.50;99.90;;;;;;5030574;28;20228;-80
2023/01/10 07:27:54;;;;;;;11.18;3.08;;;5.60;99.90;;;;;;5031449;28;20168;-79
2023/01/10 07:30:21;;;;;;;19.30;3.00;;;5.50;99.90;;;;;;5030457;28;20223;-85
2023/01/10 07:32:57;;;;;;;21.38;3.10;;;5.50;99.90;;;;;;5029971;28;20172;-80
2023/01/10 07:35:23;;;;;;;22.27;3.30;;;5.50;99.90;;;;;;5030222;28;20183;-81
2023/01/10 07:37:49;;;;;;;22.25;4.00;;;5.50;99.90;;;;;;5038959;28;20200;-81
2023/01/10 07:40:16;;;;;;;20.52;2.42;;;5.40;99.90;;;;;;5037896;28;20172;-80
2023/01/10 07:42:42;;;;;;;9.70;2.60;;;5.50;99.90;;;;;;5039270;28;20187;-78
2023/01/10 07:45:08;;;;;;;25.80;3.15;;;5.60;99.90;;;;;;5058871;28;20202;-79
2023/01/10 07:47:34;;;;;;;24.10;3.58;;;5.60;99.90;;;;;;5056130;28;20702;-79
2023/01/10 07:50:06;;;;;;;23.88;2.78;;;5.60;99.90;;;;;;5049509;28;20217;-79
2023/01/10 07:52:34;;;;;;;18.30;3.83;;;5.60;99.90;;;;;;5044138;28;20234;-81
2023/01/10 07:54:59;;;;;;;27.40;3.45;;;5.50;99.90;;;;;;5037068;28;20202;-81
2023/01/10 07:57:28;;;;;;;15.85;2.20;;;5.60;99.90;;;;;;5055008;28;20171;-85
2023/01/10 07:59:53;;;;;;;20.27;3.45;;;5.60;99.90;;;;;;5035049;28;20226;-86
2023/01/10 08:02:19;;;;;;;25.30;2.92;;;5.70;99.90;;;;;;5037286;28;20164;-85
2023/01/10 08:04:46;;;;;;;11.75;3.17;;;5.60;99.90;;;;;;5059360;28;20247;-80
2023/01/10 08:07:11;;;;;;;31.40;3.63;;;5.60;99.90;;;;;;5053486;28;20217;-83
2023/01/10 08:09:38;;;;;;;30.70;4.82;;;5.70;99.90;;;;;;5048354;28;20199;-80
2023/01/10 08:12:04;;;;;;;23.20;2.70;;;5.90;99.90;;;;;;5031233;28;20237;-85
2023/01/10 08:14:30;;;;;;;16.45;3.17;;;5.80;99.90;;;;;;5054550;28;20191;-81
2023/01/10 08:16:57;;;;;;;15.95;3.17;;;5.80;99.90;;;;;;5041826;28;20172;-79
2023/01/10 08:19:22;;;;;;;24.42;3.00;;;5.80;99.90;;;;;;5053105;28;20264;-80
2023/01/10 08:21:54;;;;;;;20.27;2.67;;;5.90;99.90;;;;;;5053345;28;20163;-81
2023/01/10 08:24:19;;;;;;;25.20;2.70;;;5.90;99.90;;;;;;5041522;28;20203;-82
2023/01/10 08:26:45;;;;;;;33.95;4.30;;;5.90;99.90;;;;;;5058054;28;20229;-81
2023/01/10 08:29:11;;;;;;;17.88;3.10;;;6.00;99.90;;;;;;5046411;28;20176;-81
2023/01/10 08:31:40;;;;;;;22.20;3.83;;;6.10;99.90;;;;;;5038190;28;20231;-85
2023/01/10 08:34:06;;;;;;;12.05;2.88;;;6.20;99.90;;;;;;5046340;28;20681;-84
2023/01/10 08:36:31;;;;;;;11.10;2.47;;;6.20;99.90;;;;;;5048423;28;20160;-81
2023/01/10 08:38:57;;;;;;;27.45;3.05;;;6.10;99.90;;;;;;5045657;28;20178;-84
2023/01/10 08:41:23;;;;;;;18.75;3.97;;;6.10;99.90;;;;;;5056788;28;20171;-80
2023/01/10 08:43:49;;;;;;;10.52;3.05;;;6.30;99.90;;;;;;5042623;28;20242;-82
2023/01/10 08:46:16;;;;;;;17.75;4.65;;;6.20;99.90;;;;;;5033684;28;20180;-81
2023/01/10 08:48:41;;;;;;;11.05;3.42;;;6.10;99.90;;;;;;5043079;28;20174;-81
2023/01/10 08:51:08;;;;;;;20.13;3.72;;;6.20;99.90;;;;;;5041987;28;20212;-84
2023/01/10 08:53:34;;;;;;;24.17;3.65;;;6.30;99.90;;;;;;5040917;28;20609;-83
2023/01/10 08:56:00;;;;;;;25.25;3.22;;;6.40;99.90;;;;;;5038424;28;20335;-85
2023/01/10 08:58:26;;;;;;;17.52;2.75;;;6.40;99.90;;;;;;5047442;28;20212;-80
2023/01/10 09:00:51;;;;;;;14.55;3.45;;;6.60;99.90;;;;;;5054769;28;20171;-80
2023/01/10 09:03:18;;;;;;;35.45;3.55;;;6.70;99.90;;;;;;5052480;28;20178;-80
2023/01/10 09:05:45;;;;;;;35.40;3.33;;;6.60;99.90;;;;;;5053138;28;20250;-84
2023/01/10 09:08:11;;;;;;;20.55;3.38;;;6.60;99.90;;;;;;5052174;28;20526;-84
2023/01/10 09:10:36;;;;;;;21.80;3.35;;;6.70;99.90;;;;;;5052939;28;20682;-80
2023/01/10 09:13:03;;;;;;;17.08;3.40;;;6.70;99.90;;;;;;5053828;28;20254;-79
2023/01/10 09:15:34;;;;;;;18.88;2.75;;;6.80;99.90;;;;;;5053446;28;20183;-80
2023/01/10 09:18:06;;;;;;;19.10;3.78;;;7.00;99.90;;;;;;5053683;28;20168;-78
2023/01/10 09:20:36;;;;;;;24.77;3.70;;;7.00;99.90;;;;;;5052177;28;20164;-79
2023/01/10 09:23:17;;;;;;;15.70;3.47;;;7.00;99.90;;;;;;5052675;28;20671;-81
2023/01/10 09:25:43;;;;;;;13.70;2.78;;;7.20;99.90;;;;;;5052297;28;20199;-79
2023/01/10 09:28:10;;;;;;;25.50;4.15;;;7.20;99.90;;;;;;5052170;28;20168;-79
2023/01/10 09:30:35;;;;;;;31.33;4.38;;;7.30;99.90;;;;;;5052642;28;20207;-80
2023/01/10 09:33:03;;;;;;;21.90;3.65;;;7.30;99.90;;;;;;5051246;28;20229;-80
2023/01/10 09:35:30;;;;;;;16.30;3.10;;;7.20;99.90;;;;;;5051458;28;20249;-79
2023/01/10 09:37:57;;;;;;;27.67;3.90;;;7.20;99.90;;;;;;5052422;28;20545;-80
2023/01/10 09:40:40;;;;;;;21.25;2.88;;;7.30;99.90;;;;;;5056179;28;20195;-82
2023/01/10 09:43:33;;;;;;;30.50;4.45;;;7.30;99.90;;;;;;5056134;28;20163;-80
2023/01/10 09:46:11;;;;;;;36.08;3.40;;;7.40;99.90;;;;;;5055873;28;20171;-80
2023/01/10 09:48:45;;;;;;;16.08;3.42;;;7.40;99.90;;;;;;5055760;28;20167;-80
2023/01/10 09:51:39;;;;;;;18.40;3.95;;;7.40;99.90;;;;;;5055587;28;20312;-81
2023/01/10 09:54:15;;;;;;;9.75;3.58;;;7.50;99.90;;;;;;5054276;28;20183;-79
2023/01/10 09:56:42;;;;;;;14.90;3.15;;;7.60;99.90;;;;;;5055942;28;20167;-84
2023/01/10 09:59:19;;;;;;;20.40;4.40;;;7.80;99.90;;;;;;5054347;28;20159;-81
2023/01/10 10:01:49;;;;;;;16.80;3.28;;;7.90;99.90;;;;;;5055655;28;20171;-79
2023/01/10 10:04:33;;;;;;;19.08;3.78;;;7.80;99.90;;;;;;5055475;28;20183;-79
2023/01/10 10:06:59;;;;;;;19.08;3.28;;;7.80;99.90;;;;;;5055895;28;20594;-79
2023/01/10 10:09:29;;;;;;;17.45;3.90;;;7.80;99.90;;;;;;5055113;28;20194;-80
2023/01/10 10:12:03;;;;;;;21.33;3.30;;;7.80;99.90;;;;;;5055622;28;20185;-80
2023/01/10 10:15:03;;;;;;;19.20;2.42;;;7.90;99.90;;;;;;5055898;28;20190;-82
2023/01/10 10:18:00;;;;;;;20.13;3.05;;;7.90;99.90;;;;;;5057017;28;20171;-82
2023/01/10 10:21:02;;;;;;;15.65;2.47;;;7.90;99.90;;;;;;5054362;28;20623;-78
2023/01/10 10:24:00;;;;;;;21.42;4.68;;;7.90;99.90;;;;;;5054834;22;20220;-85
2023/01/10 10:27:04;;;;;;;20.63;3.78;;;7.90;99.90;;;;;;5013708;28;20177;-81
2023/01/10 10:29:35;;;;;;;16.25;3.58;;;7.80;99.90;;;;;;5013201;28;20184;-84
2023/01/10 10:32:20;;;;;;;30.45;4.45;;;7.90;99.90;;;;;;5014692;28;20660;-84
2023/01/10 10:34:57;;;;;;;22.27;3.35;;;8.00;99.90;;;;;;5015088;28;20204;-84
2023/01/10 10:37:39;;;;;;;15.27;3.00;;;8.30;99.90;;;;;;5014985;28;20164;-81
2023/01/10 10:40:28;;;;;;;24.70;3.30;;;8.30;99.90;;;;;;5014719;28;20259;-82
2023/01/10 10:42:57;;;;;;;17.13;3.45;;;8.30;99.90;;;;;;5013471;28;20175;-84
2023/01/10 10:45:51;;;;;;;17.83;3.70;;;8.30;99.90;;;;;;5014910;28;20188;-82
2023/01/10 10:48:23;;;;;;;25.05;4.13;;;8.50;99.90;;;;;;5013021;28;20656;-83
2023/01/10 10:51:01;;;;;;;19.35;2.70;;;8.70;99.90;;;;;;5013509;28;20216;-82
2023/01/10 10:53:27;;;;;;;20.33;2.17;;;8.70;99.90;;;;;;5014761;28;20255;-84
2023/01/10 10:55:54;;;;;;;23.05;3.35;;;8.60;99.90;;;;;;5014511;28;20569;-84
2023/01/10 10:58:19;;;;;;;23.83;2.97;;;8.50;99.90;;;;;;5014367;28;20234;-84
2023/01/10 11:00:46;;;;;;;26.08;4.63;;;8.60;99.90;;;;;;5014541;28;20403;-79
2023/01/10 11:03:25;;;;;;;9.88;2.42;;;8.80;99.90;;;;;;5013297;28;20168;-80
2023/01/10 11:05:52;;;;;;;16.13;2.35;;;8.80;99.90;;;;;;5014166;28;20164;-84
2023/01/10 11:08:20;;;;;;;21.13;3.63;;;8.80;99.90;;;;;;5014033;28;20286;-80
2023/01/10 11:10:53;;;;;;;14.88;2.78;;;8.70;99.90;;;;;;5013979;28;20739;-85
2023/01/10 11:13:33;;;;;;;15.23;2.58;;;8.70;99.90;;;;;;5014201;28;20246;-79
2023/01/10 11:16:06;;;;;;;19.17;3.20;;;8.80;99.90;;;;;;5013699;28;20172;-80
2023/01/10 11:18:33;;;;;;;27.35;4.25;;;8.90;99.90;;;;;;5013763;28;20179;-85
2023/01/10 11:21:07;;;;;;;15.48;2.50;;;9.10;99.90;;;;;;5013887;28;20550;-80
2023/01/10 11:23:52;;;;;;;26.50;2.55;;;9.10;99.90;;;;;;5013599;28;20208;-80
2023/01/10 11:26:24;;;;;;;22.65;3.25;;;9.00;99.90;;;;;;5013832;28;20172;-80
2023/01/10 11:29:02;;;;;;;16.67;3.05;;;9.10;99.90;;;;;;5014245;28;20165;-84
2023/01/10 11:31:29;;;;;;;26.80;2.85;;;9.20;99.90;;;;;;5013860;28;20311;-83
2023/01/10 11:33:55;;;;;;;9.60;2.45;;;9.10;99.90;;;;;;5013571;28;20180;-82
2023/01/10 11:36:21;;;;;;;20.65;3.85;;;9.00;99.90;;;;;;5013668;28;20176;-82
2023/01/10 11:39:03;;;;;;;10.00;3.15;;;9.10;99.90;;;;;;5013655;28;20168;-82
2023/01/10 11:41:33;;;;;;;19.42;3.10;;;9.20;99.90;;;;;;5012564;28;20172;-80
2023/01/10 11:44:22;;;;;;;14.35;2.95;;;9.20;99.90;;;;;;5012792;28;20192;-84
2023/01/10 11:46:50;;;;;;;19.30;2.47;;;9.20;99.90;;;;;;5014190;28;20188;-86
2023/01/10 11:49:36;;;;;;;14.23;3.03;;;9.20;99.90;;;;;;5014390;28;20168;-79
2023/01/10 11:52:05;;;;;;;30.08;3.95;;;9.50;99.90;;;;;;5012479;28;20180;-84
2023/01/10 11:54:32;;;;;;;14.23;3.25;;;9.40;99.90;;;;;;5012247;28;20185;-84
2023/01/10 11:57:02;;;;;;;23.08;4.45;;;9.60;99.90;;;;;;5012867;28;20177;-83
2023/01/10 11:59:28;;;;;;;17.52;3.28;;;9.60;99.90;;;;;;5013849;28;20171;-86
2023/01/10 12:02:03;;;;;;;23.77;3.08;;;9.50;99.90;;;;;;5012612;28;20165;-86
2023/01/10 12:04:33;;;;;;;17.90;3.42;;;9.40;99.90;;;;;;5012633;28;20267;-84
2023/01/10 12:07:03;;;;;;;11.48;2.65;;;9.50;99.90;;;;;;5013588;28;20165;-83
2023/01/10 12:09:41;;;;;;;12.45;2.47;;;9.50;99.90;;;;;;5013606;28;20173;-81
2023/01/10 12:12:26;;;;;;;17.70;3.08;;;9.40;99.90;;;;;;5013246;28;20254;-85
2023/01/10 12:14:53;;;;;;;17.42;2.97;;;9.30;99.90;;;;;;5013499;28;20196;-84
2023/01/10 12:17:27;;;;;;;13.00;3.35;;;9.10;99.90;;;;;;5013375;28;20173;-80
2023/01/10 12:19:55;;;;;;;13.60;3.47;;;9.20;99.90;;;;;;5013537;28;20164;-85
2023/01/10 12:22:28;;;;;;;11.43;2.47;;;9.20;99.90;;;;;;5013303;28;20302;-82
2023/01/10 12:24:55;;;;;;;8.45;2.55;;;9.20;99.90;;;;;;5014110;28;20203;-80
2023/01/10 12:27:24;;;;;;;20.58;2.97;;;9.00;99.90;;;;;;5012046;28;20172;-86
2023/01/10 12:30:10;;;;;;;12.35;2.90;;;9.10;99.90;;;;;;5013162;28;20204;-85
2023/01/10 12:32:43;;;;;;;13.32;2.08;;;9.00;99.90;;;;;;5013259;28;20203;-82
2023/01/10 12:35:19;;;;;;;18.20;2.65;;;9.10;99.90;;;;;;5013123;28;20653;-79
2023/01/10 12:37:49;;;;;;;14.52;2.95;;;9.20;99.90;;;;;;5013605;28;20710;-84
2023/01/10 12:40:27;;;;;;;10.23;2.50;;;9.10;99.90;;;;;;5013641;28;20167;-83
2023/01/10 12:46:25;;;;;;;18.90;2.58;;;9.10;99.90;;;;;;5013154;28;20175;-84
2023/01/10 12:49:06;;;;;;;21.58;2.63;;;8.90;99.90;;;;;;5012728;28;20594;-80
2023/01/10 12:51:33;;;;;;;12.23;2.65;;;8.70;99.90;;;;;;5012626;28;20204;-83
2023/01/10 12:54:04;;;;;;;11.57;2.50;;;8.80;99.90;;;;;;5012859;28;20195;-83
2023/01/10 12:56:31;;;;;;;13.45;3.22;;;8.60;99.90;;;;;;5012861;28;20604;-81
2023/01/10 12:59:04;;;;;;;12.07;3.17;;;8.60;99.90;;;;;;5012924;28;20176;-84
2023/01/10 13:01:34;;;;;;;11.38;2.92;;;8.60;99.90;;;;;;5011471;28;20208;-81
2023/01/10 13:04:10;;;;;;;14.15;2.70;;;8.60;99.90;;;;;;5013088;28;20657;-83
2023/01/10 13:06:42;;;;;;;10.35;2.75;;;8.50;99.90;;;;;;5011920;28;20175;-85
2023/01/10 13:09:21;;;;;;;15.88;2.30;;;8.60;99.90;;;;;;5013741;28;20177;-85
2023/01/10 13:11:54;;;;;;;20.15;2.70;;;8.40;99.90;;;;;;5011150;28;20211;-87
2023/01/10 13:14:25;;;;;;;5.10;1.83;;;8.50;99.90;;;;;;5016233;28;20238;-86
2023/01/10 13:17:01;;;;;;;15.90;2.95;;;8.40;99.90;;;;;;5037771;28;20236;-84